<?xml version="1.0" encoding="UTF-8"?><gpx creator="Wikiloc - http://www.wikiloc.com" version="1.1" xmlns="http://www.topografix.com/GPX/1/1" xmlns:xsi="http://www.w3.org/2001/XMLSchema-instance" xsi:schemaLocation="http://www.topografix.com/GPX/1/1 http://www.topografix.com/GPX/1/1/gpx.xsd"><wpt lat="40.153124" lon="-5.902149"><ele>0.0</ele><time>2015-09-28T18:32:35Z</time><name>Rebollar</name><cmt></cmt><desc></desc></wpt><wpt lat="40.149390" lon="-5.907360"><ele>0.0</ele><time>2015-09-28T18:32:47Z</time><name>Dejamos Ctra</name><cmt></cmt><desc></desc></wpt><wpt lat="40.143283" lon="-5.908449"><ele>0.0</ele><time>2015-09-28T18:33:02Z</time><name>Garganta la Puria</name><cmt></cmt><desc></desc></wpt><trk><name>SL-CC 28 Garganta la Puria (Rebollar)</name><cmt></cmt><desc></desc><trkseg><trkpt lat="40.153006" lon="-5.902436"><ele>630.8</ele><time>2013-08-10T07:01:56Z</time></trkpt><trkpt lat="40.152971" lon="-5.902376"><ele>628.7</ele><time>2013-08-10T07:02:14Z</time></trkpt><trkpt lat="40.152893" lon="-5.902370"><ele>627.1</ele><time>2013-08-10T07:02:31Z</time></trkpt><trkpt lat="40.152779" lon="-5.902347"><ele>624.3</ele><time>2013-08-10T07:02:47Z</time></trkpt><trkpt lat="40.152667" lon="-5.902383"><ele>622.9</ele><time>2013-08-10T07:03:05Z</time></trkpt><trkpt lat="40.152583" lon="-5.902406"><ele>621.7</ele><time>2013-08-10T07:03:21Z</time></trkpt><trkpt lat="40.152390" lon="-5.902466"><ele>619.2</ele><time>2013-08-10T07:03:39Z</time></trkpt><trkpt lat="40.152268" lon="-5.902516"><ele>618.1</ele><time>2013-08-10T07:03:55Z</time></trkpt><trkpt lat="40.152122" lon="-5.902563"><ele>617.1</ele><time>2013-08-10T07:04:12Z</time></trkpt><trkpt lat="40.152013" lon="-5.902608"><ele>616.6</ele><time>2013-08-10T07:04:30Z</time></trkpt><trkpt lat="40.151900" lon="-5.902644"><ele>615.7</ele><time>2013-08-10T07:04:46Z</time></trkpt><trkpt lat="40.151772" lon="-5.902709"><ele>615.6</ele><time>2013-08-10T07:05:04Z</time></trkpt><trkpt lat="40.151622" lon="-5.902759"><ele>614.6</ele><time>2013-08-10T07:05:20Z</time></trkpt><trkpt lat="40.151571" lon="-5.902809"><ele>615.6</ele><time>2013-08-10T07:05:38Z</time></trkpt><trkpt lat="40.151410" lon="-5.902880"><ele>615.2</ele><time>2013-08-10T07:05:55Z</time></trkpt><trkpt lat="40.151410" lon="-5.902890"><ele>615.5</ele><time>2013-08-10T07:06:11Z</time></trkpt><trkpt lat="40.151300" lon="-5.902930"><ele>614.8</ele><time>2013-08-10T07:06:29Z</time></trkpt><trkpt lat="40.151090" lon="-5.903120"><ele>616.3</ele><time>2013-08-10T07:06:45Z</time></trkpt><trkpt lat="40.150850" lon="-5.903430"><ele>618.7</ele><time>2013-08-10T07:07:03Z</time></trkpt><trkpt lat="40.150710" lon="-5.903620"><ele>618.9</ele><time>2013-08-10T07:07:20Z</time></trkpt><trkpt lat="40.150560" lon="-5.903800"><ele>618.1</ele><time>2013-08-10T07:07:36Z</time></trkpt><trkpt lat="40.150360" lon="-5.904120"><ele>618.5</ele><time>2013-08-10T07:07:54Z</time></trkpt><trkpt lat="40.150290" lon="-5.904330"><ele>618.9</ele><time>2013-08-10T07:08:10Z</time></trkpt><trkpt lat="40.150290" lon="-5.904370"><ele>619.3</ele><time>2013-08-10T07:08:28Z</time></trkpt><trkpt lat="40.150260" lon="-5.904420"><ele>618.7</ele><time>2013-08-10T07:08:45Z</time></trkpt><trkpt lat="40.150250" lon="-5.904410"><ele>618.3</ele><time>2013-08-10T07:09:01Z</time></trkpt><trkpt lat="40.150240" lon="-5.904460"><ele>618.4</ele><time>2013-08-10T07:09:19Z</time></trkpt><trkpt lat="40.150200" lon="-5.904690"><ele>619.3</ele><time>2013-08-10T07:09:35Z</time></trkpt><trkpt lat="40.150220" lon="-5.904900"><ele>622.2</ele><time>2013-08-10T07:09:53Z</time></trkpt><trkpt lat="40.150280" lon="-5.905130"><ele>626.7</ele><time>2013-08-10T07:10:10Z</time></trkpt><trkpt lat="40.150290" lon="-5.905140"><ele>627.2</ele><time>2013-08-10T07:10:26Z</time></trkpt><trkpt lat="40.150290" lon="-5.905160"><ele>627.3</ele><time>2013-08-10T07:10:44Z</time></trkpt><trkpt lat="40.150490" lon="-5.905800"><ele>637.4</ele><time>2013-08-10T07:11:00Z</time></trkpt><trkpt lat="40.150500" lon="-5.905830"><ele>637.8</ele><time>2013-08-10T07:11:18Z</time></trkpt><trkpt lat="40.150500" lon="-5.905940"><ele>640.0</ele><time>2013-08-10T07:11:34Z</time></trkpt><trkpt lat="40.150440" lon="-5.906070"><ele>641.1</ele><time>2013-08-10T07:11:51Z</time></trkpt><trkpt lat="40.150400" lon="-5.906120"><ele>641.1</ele><time>2013-08-10T07:12:09Z</time></trkpt><trkpt lat="40.150270" lon="-5.906280"><ele>641.1</ele><time>2013-08-10T07:12:25Z</time></trkpt><trkpt lat="40.150210" lon="-5.906380"><ele>641.8</ele><time>2013-08-10T07:12:43Z</time></trkpt><trkpt lat="40.150150" lon="-5.906490"><ele>642.7</ele><time>2013-08-10T07:12:59Z</time></trkpt><trkpt lat="40.150060" lon="-5.906690"><ele>645.3</ele><time>2013-08-10T07:13:17Z</time></trkpt><trkpt lat="40.149960" lon="-5.906830"><ele>647.8</ele><time>2013-08-10T07:13:34Z</time></trkpt><trkpt lat="40.149930" lon="-5.906860"><ele>648.0</ele><time>2013-08-10T07:13:50Z</time></trkpt><trkpt lat="40.149760" lon="-5.907040"><ele>649.6</ele><time>2013-08-10T07:14:08Z</time></trkpt><trkpt lat="40.149582" lon="-5.907226"><ele>649.7</ele><time>2013-08-10T07:14:24Z</time></trkpt><trkpt lat="40.149555" lon="-5.907330"><ele>649.5</ele><time>2013-08-10T07:14:42Z</time></trkpt><trkpt lat="40.149420" lon="-5.907350"><ele>650.5</ele><time>2013-08-10T07:17:14Z</time></trkpt><trkpt lat="40.149280" lon="-5.907380"><ele>647.3</ele><time>2013-08-10T07:17:32Z</time></trkpt><trkpt lat="40.149254" lon="-5.907379"><ele>644.7</ele><time>2013-08-10T07:17:49Z</time></trkpt><trkpt lat="40.149217" lon="-5.907401"><ele>645.7</ele><time>2013-08-10T07:18:05Z</time></trkpt><trkpt lat="40.149199" lon="-5.907412"><ele>647.5</ele><time>2013-08-10T07:18:23Z</time></trkpt><trkpt lat="40.149172" lon="-5.907417"><ele>646.9</ele><time>2013-08-10T07:18:39Z</time></trkpt><trkpt lat="40.149070" lon="-5.907470"><ele>642.4</ele><time>2013-08-10T07:18:57Z</time></trkpt><trkpt lat="40.149020" lon="-5.907530"><ele>641.6</ele><time>2013-08-10T07:19:13Z</time></trkpt><trkpt lat="40.148900" lon="-5.907700"><ele>639.6</ele><time>2013-08-10T07:19:30Z</time></trkpt><trkpt lat="40.148800" lon="-5.907930"><ele>640.4</ele><time>2013-08-10T07:19:48Z</time></trkpt><trkpt lat="40.148700" lon="-5.908060"><ele>639.4</ele><time>2013-08-10T07:20:04Z</time></trkpt><trkpt lat="40.148660" lon="-5.907960"><ele>635.3</ele><time>2013-08-10T07:20:22Z</time></trkpt><trkpt lat="40.148760" lon="-5.907700"><ele>633.3</ele><time>2013-08-10T07:20:38Z</time></trkpt><trkpt lat="40.148820" lon="-5.907580"><ele>633.2</ele><time>2013-08-10T07:20:56Z</time></trkpt><trkpt lat="40.148840" lon="-5.907420"><ele>629.8</ele><time>2013-08-10T07:21:13Z</time></trkpt><trkpt lat="40.148840" lon="-5.907410"><ele>629.5</ele><time>2013-08-10T07:21:29Z</time></trkpt><trkpt lat="40.148800" lon="-5.907370"><ele>626.4</ele><time>2013-08-10T07:21:47Z</time></trkpt><trkpt lat="40.148690" lon="-5.907500"><ele>625.1</ele><time>2013-08-10T07:22:03Z</time></trkpt><trkpt lat="40.148630" lon="-5.907620"><ele>625.3</ele><time>2013-08-10T07:22:21Z</time></trkpt><trkpt lat="40.148520" lon="-5.907820"><ele>625.7</ele><time>2013-08-10T07:22:38Z</time></trkpt><trkpt lat="40.148480" lon="-5.907890"><ele>625.9</ele><time>2013-08-10T07:22:54Z</time></trkpt><trkpt lat="40.148440" lon="-5.908080"><ele>629.6</ele><time>2013-08-10T07:23:12Z</time></trkpt><trkpt lat="40.148410" lon="-5.908290"><ele>634.5</ele><time>2013-08-10T07:23:28Z</time></trkpt><trkpt lat="40.148360" lon="-5.908360"><ele>634.7</ele><time>2013-08-10T07:23:46Z</time></trkpt><trkpt lat="40.148300" lon="-5.908410"><ele>634.0</ele><time>2013-08-10T07:24:03Z</time></trkpt><trkpt lat="40.148120" lon="-5.908520"><ele>631.4</ele><time>2013-08-10T07:24:19Z</time></trkpt><trkpt lat="40.147810" lon="-5.908530"><ele>621.9</ele><time>2013-08-10T07:24:37Z</time></trkpt><trkpt lat="40.147620" lon="-5.908580"><ele>617.6</ele><time>2013-08-10T07:24:53Z</time></trkpt><trkpt lat="40.147390" lon="-5.908690"><ele>614.1</ele><time>2013-08-10T07:25:11Z</time></trkpt><trkpt lat="40.147100" lon="-5.908880"><ele>610.8</ele><time>2013-08-10T07:25:28Z</time></trkpt><trkpt lat="40.146940" lon="-5.909060"><ele>611.3</ele><time>2013-08-10T07:25:44Z</time></trkpt><trkpt lat="40.146830" lon="-5.909230"><ele>612.3</ele><time>2013-08-10T07:26:02Z</time></trkpt><trkpt lat="40.146810" lon="-5.909220"><ele>611.3</ele><time>2013-08-10T07:26:18Z</time></trkpt><trkpt lat="40.146800" lon="-5.909200"><ele>610.5</ele><time>2013-08-10T07:26:36Z</time></trkpt><trkpt lat="40.146800" lon="-5.909140"><ele>608.9</ele><time>2013-08-10T07:26:52Z</time></trkpt><trkpt lat="40.146960" lon="-5.908910"><ele>606.9</ele><time>2013-08-10T07:27:09Z</time></trkpt><trkpt lat="40.147100" lon="-5.908670"><ele>603.6</ele><time>2013-08-10T07:27:27Z</time></trkpt><trkpt lat="40.147280" lon="-5.908410"><ele>600.6</ele><time>2013-08-10T07:27:43Z</time></trkpt><trkpt lat="40.147270" lon="-5.908320"><ele>597.0</ele><time>2013-08-10T07:28:01Z</time></trkpt><trkpt lat="40.147230" lon="-5.908300"><ele>595.0</ele><time>2013-08-10T07:28:17Z</time></trkpt><trkpt lat="40.147080" lon="-5.908350"><ele>592.0</ele><time>2013-08-10T07:28:35Z</time></trkpt><trkpt lat="40.146920" lon="-5.908570"><ele>594.1</ele><time>2013-08-10T07:28:52Z</time></trkpt><trkpt lat="40.146890" lon="-5.908600"><ele>594.1</ele><time>2013-08-10T07:29:08Z</time></trkpt><trkpt lat="40.146890" lon="-5.908590"><ele>593.8</ele><time>2013-08-10T07:29:26Z</time></trkpt><trkpt lat="40.146860" lon="-5.908610"><ele>593.5</ele><time>2013-08-10T07:29:42Z</time></trkpt><trkpt lat="40.146828" lon="-5.908655"><ele>593.5</ele><time>2013-08-10T07:30:00Z</time></trkpt><trkpt lat="40.146750" lon="-5.908730"><ele>593.7</ele><time>2013-08-10T07:30:17Z</time></trkpt><trkpt lat="40.146630" lon="-5.908920"><ele>596.0</ele><time>2013-08-10T07:30:33Z</time></trkpt><trkpt lat="40.146470" lon="-5.909130"><ele>597.8</ele><time>2013-08-10T07:30:51Z</time></trkpt><trkpt lat="40.146300" lon="-5.909220"><ele>594.6</ele><time>2013-08-10T07:31:07Z</time></trkpt><trkpt lat="40.146290" lon="-5.909220"><ele>594.2</ele><time>2013-08-10T07:31:25Z</time></trkpt><trkpt lat="40.146310" lon="-5.909210"><ele>594.7</ele><time>2013-08-10T07:31:58Z</time></trkpt><trkpt lat="40.146090" lon="-5.909210"><ele>587.7</ele><time>2013-08-10T07:32:16Z</time></trkpt><trkpt lat="40.145900" lon="-5.909240"><ele>582.1</ele><time>2013-08-10T07:32:32Z</time></trkpt><trkpt lat="40.145840" lon="-5.909020"><ele>575.9</ele><time>2013-08-10T07:32:50Z</time></trkpt><trkpt lat="40.146020" lon="-5.908790"><ele>575.4</ele><time>2013-08-10T07:33:07Z</time></trkpt><trkpt lat="40.146170" lon="-5.908680"><ele>576.5</ele><time>2013-08-10T07:33:23Z</time></trkpt><trkpt lat="40.146160" lon="-5.908610"><ele>574.4</ele><time>2013-08-10T07:33:41Z</time></trkpt><trkpt lat="40.146010" lon="-5.908480"><ele>567.5</ele><time>2013-08-10T07:33:57Z</time></trkpt><trkpt lat="40.145840" lon="-5.908530"><ele>564.6</ele><time>2013-08-10T07:34:15Z</time></trkpt><trkpt lat="40.145820" lon="-5.908590"><ele>565.5</ele><time>2013-08-10T07:34:31Z</time></trkpt><trkpt lat="40.145770" lon="-5.908620"><ele>565.1</ele><time>2013-08-10T07:34:48Z</time></trkpt><trkpt lat="40.145710" lon="-5.908700"><ele>565.4</ele><time>2013-08-10T07:35:06Z</time></trkpt><trkpt lat="40.145530" lon="-5.909040"><ele>567.8</ele><time>2013-08-10T07:35:22Z</time></trkpt><trkpt lat="40.145360" lon="-5.909230"><ele>566.2</ele><time>2013-08-10T07:35:40Z</time></trkpt><trkpt lat="40.145180" lon="-5.909220"><ele>560.9</ele><time>2013-08-10T07:35:56Z</time></trkpt><trkpt lat="40.145020" lon="-5.909330"><ele>557.7</ele><time>2013-08-10T07:36:14Z</time></trkpt><trkpt lat="40.144920" lon="-5.909420"><ele>555.7</ele><time>2013-08-10T07:36:31Z</time></trkpt><trkpt lat="40.144670" lon="-5.909730"><ele>551.5</ele><time>2013-08-10T07:36:47Z</time></trkpt><trkpt lat="40.144600" lon="-5.910010"><ele>552.7</ele><time>2013-08-10T07:37:05Z</time></trkpt><trkpt lat="40.144600" lon="-5.910300"><ele>556.7</ele><time>2013-08-10T07:37:21Z</time></trkpt><trkpt lat="40.144550" lon="-5.910600"><ele>559.2</ele><time>2013-08-10T07:37:39Z</time></trkpt><trkpt lat="40.144420" lon="-5.910720"><ele>557.0</ele><time>2013-08-10T07:37:56Z</time></trkpt><trkpt lat="40.144310" lon="-5.910790"><ele>554.7</ele><time>2013-08-10T07:38:12Z</time></trkpt><trkpt lat="40.144230" lon="-5.910840"><ele>553.0</ele><time>2013-08-10T07:38:46Z</time></trkpt><trkpt lat="40.144150" lon="-5.910840"><ele>550.6</ele><time>2013-08-10T07:39:37Z</time></trkpt><trkpt lat="40.144090" lon="-5.910870"><ele>549.4</ele><time>2013-08-10T07:39:55Z</time></trkpt><trkpt lat="40.143970" lon="-5.910870"><ele>545.7</ele><time>2013-08-10T07:40:11Z</time></trkpt><trkpt lat="40.143970" lon="-5.910830"><ele>545.0</ele><time>2013-08-10T07:40:29Z</time></trkpt><trkpt lat="40.144090" lon="-5.910680"><ele>546.3</ele><time>2013-08-10T07:40:46Z</time></trkpt><trkpt lat="40.144220" lon="-5.910610"><ele>549.2</ele><time>2013-08-10T07:41:02Z</time></trkpt><trkpt lat="40.144320" lon="-5.910470"><ele>550.2</ele><time>2013-08-10T07:41:20Z</time></trkpt><trkpt lat="40.144340" lon="-5.910420"><ele>550.1</ele><time>2013-08-10T07:41:36Z</time></trkpt><trkpt lat="40.144330" lon="-5.910280"><ele>547.7</ele><time>2013-08-10T07:41:54Z</time></trkpt><trkpt lat="40.144300" lon="-5.910180"><ele>545.2</ele><time>2013-08-10T07:42:10Z</time></trkpt><trkpt lat="40.144250" lon="-5.909930"><ele>540.0</ele><time>2013-08-10T07:42:27Z</time></trkpt><trkpt lat="40.144230" lon="-5.909880"><ele>538.7</ele><time>2013-08-10T07:42:45Z</time></trkpt><trkpt lat="40.144240" lon="-5.909740"><ele>537.3</ele><time>2013-08-10T07:43:01Z</time></trkpt><trkpt lat="40.144330" lon="-5.909330"><ele>535.3</ele><time>2013-08-10T07:43:19Z</time></trkpt><trkpt lat="40.144360" lon="-5.909020"><ele>533.1</ele><time>2013-08-10T07:43:35Z</time></trkpt><trkpt lat="40.144310" lon="-5.908500"><ele>527.7</ele><time>2013-08-10T07:43:53Z</time></trkpt><trkpt lat="40.144280" lon="-5.908200"><ele>524.2</ele><time>2013-08-10T07:44:10Z</time></trkpt><trkpt lat="40.144280" lon="-5.908110"><ele>523.1</ele><time>2013-08-10T07:44:26Z</time></trkpt><trkpt lat="40.144350" lon="-5.907930"><ele>522.3</ele><time>2013-08-10T07:44:44Z</time></trkpt><trkpt lat="40.144570" lon="-5.907720"><ele>522.5</ele><time>2013-08-10T07:45:00Z</time></trkpt><trkpt lat="40.144650" lon="-5.907580"><ele>521.1</ele><time>2013-08-10T07:46:25Z</time></trkpt><trkpt lat="40.144670" lon="-5.907510"><ele>520.0</ele><time>2013-08-10T07:46:43Z</time></trkpt><trkpt lat="40.144600" lon="-5.907440"><ele>517.9</ele><time>2013-08-10T07:47:00Z</time></trkpt><trkpt lat="40.144590" lon="-5.907480"><ele>518.6</ele><time>2013-08-10T07:47:16Z</time></trkpt><trkpt lat="40.144530" lon="-5.907480"><ele>518.1</ele><time>2013-08-10T07:47:50Z</time></trkpt><trkpt lat="40.144360" lon="-5.907470"><ele>516.2</ele><time>2013-08-10T07:48:08Z</time></trkpt><trkpt lat="40.144170" lon="-5.907480"><ele>514.6</ele><time>2013-08-10T07:48:25Z</time></trkpt><trkpt lat="40.143980" lon="-5.907620"><ele>512.1</ele><time>2013-08-10T07:48:41Z</time></trkpt><trkpt lat="40.143880" lon="-5.907810"><ele>511.1</ele><time>2013-08-10T07:48:59Z</time></trkpt><trkpt lat="40.143810" lon="-5.907980"><ele>510.4</ele><time>2013-08-10T07:49:15Z</time></trkpt><trkpt lat="40.143800" lon="-5.908050"><ele>510.5</ele><time>2013-08-10T07:49:33Z</time></trkpt><trkpt lat="40.143810" lon="-5.908190"><ele>511.5</ele><time>2013-08-10T07:49:49Z</time></trkpt><trkpt lat="40.143750" lon="-5.908420"><ele>511.1</ele><time>2013-08-10T07:50:06Z</time></trkpt><trkpt lat="40.143720" lon="-5.908430"><ele>510.2</ele><time>2013-08-10T07:50:24Z</time></trkpt><trkpt lat="40.143670" lon="-5.908400"><ele>508.5</ele><time>2013-08-10T07:50:40Z</time></trkpt><trkpt lat="40.143550" lon="-5.908150"><ele>504.0</ele><time>2013-08-10T07:50:58Z</time></trkpt><trkpt lat="40.143480" lon="-5.907890"><ele>501.7</ele><time>2013-08-10T07:51:14Z</time></trkpt><trkpt lat="40.143180" lon="-5.907480"><ele>495.9</ele><time>2013-08-10T07:51:32Z</time></trkpt><trkpt lat="40.143130" lon="-5.907430"><ele>495.1</ele><time>2013-08-10T07:51:49Z</time></trkpt><trkpt lat="40.142960" lon="-5.907170"><ele>492.2</ele><time>2013-08-10T07:52:05Z</time></trkpt><trkpt lat="40.142900" lon="-5.907030"><ele>491.2</ele><time>2013-08-10T07:52:23Z</time></trkpt><trkpt lat="40.142870" lon="-5.906950"><ele>490.7</ele><time>2013-08-10T07:53:48Z</time></trkpt><trkpt lat="40.142870" lon="-5.906880"><ele>490.6</ele><time>2013-08-10T07:54:04Z</time></trkpt><trkpt lat="40.142790" lon="-5.906680"><ele>489.5</ele><time>2013-08-10T07:54:22Z</time></trkpt><trkpt lat="40.142720" lon="-5.906430"><ele>487.8</ele><time>2013-08-10T07:54:39Z</time></trkpt><trkpt lat="40.142670" lon="-5.906310"><ele>487.0</ele><time>2013-08-10T07:54:55Z</time></trkpt><trkpt lat="40.142680" lon="-5.905990"><ele>485.7</ele><time>2013-08-10T07:55:13Z</time></trkpt><trkpt lat="40.142600" lon="-5.905900"><ele>484.9</ele><time>2013-08-10T07:55:47Z</time></trkpt><trkpt lat="40.142520" lon="-5.905810"><ele>484.0</ele><time>2013-08-10T07:56:04Z</time></trkpt><trkpt lat="40.142470" lon="-5.905790"><ele>483.6</ele><time>2013-08-10T07:58:19Z</time></trkpt><trkpt lat="40.142400" lon="-5.905770"><ele>483.0</ele><time>2013-08-10T07:58:37Z</time></trkpt><trkpt lat="40.142120" lon="-5.905940"><ele>481.0</ele><time>2013-08-10T07:58:53Z</time></trkpt><trkpt lat="40.141947" lon="-5.906023"><ele>479.0</ele><time>2013-08-10T07:59:11Z</time></trkpt><trkpt lat="40.141950" lon="-5.906030"><ele>479.5</ele><time>2013-08-10T07:59:28Z</time></trkpt><trkpt lat="40.141910" lon="-5.906150"><ele>479.1</ele><time>2013-08-10T07:59:44Z</time></trkpt><trkpt lat="40.141940" lon="-5.906300"><ele>479.5</ele><time>2013-08-10T08:00:02Z</time></trkpt><trkpt lat="40.141980" lon="-5.906494"><ele>480.3</ele><time>2013-08-10T08:00:18Z</time></trkpt><trkpt lat="40.142021" lon="-5.906651"><ele>481.2</ele><time>2013-08-10T08:00:36Z</time></trkpt><trkpt lat="40.142055" lon="-5.906720"><ele>481.7</ele><time>2013-08-10T08:00:53Z</time></trkpt><trkpt lat="40.142089" lon="-5.906804"><ele>482.6</ele><time>2013-08-10T08:01:09Z</time></trkpt><trkpt lat="40.142145" lon="-5.906909"><ele>483.7</ele><time>2013-08-10T08:01:27Z</time></trkpt><trkpt lat="40.142186" lon="-5.906975"><ele>484.6</ele><time>2013-08-10T08:01:43Z</time></trkpt><trkpt lat="40.142214" lon="-5.907038"><ele>484.7</ele><time>2013-08-10T08:02:01Z</time></trkpt><trkpt lat="40.142280" lon="-5.907120"><ele>485.2</ele><time>2013-08-10T08:02:18Z</time></trkpt><trkpt lat="40.142300" lon="-5.907150"><ele>485.5</ele><time>2013-08-10T08:02:34Z</time></trkpt><trkpt lat="40.142420" lon="-5.907210"><ele>486.4</ele><time>2013-08-10T08:02:52Z</time></trkpt><trkpt lat="40.142490" lon="-5.907290"><ele>486.9</ele><time>2013-08-10T08:03:08Z</time></trkpt><trkpt lat="40.142580" lon="-5.907430"><ele>488.0</ele><time>2013-08-10T08:03:26Z</time></trkpt><trkpt lat="40.142630" lon="-5.907470"><ele>488.7</ele><time>2013-08-10T08:03:43Z</time></trkpt><trkpt lat="40.142710" lon="-5.907620"><ele>491.0</ele><time>2013-08-10T08:03:59Z</time></trkpt><trkpt lat="40.142830" lon="-5.907750"><ele>493.3</ele><time>2013-08-10T08:04:17Z</time></trkpt><trkpt lat="40.143120" lon="-5.908060"><ele>497.1</ele><time>2013-08-10T08:04:33Z</time></trkpt><trkpt lat="40.143240" lon="-5.908240"><ele>497.9</ele><time>2013-08-10T08:04:51Z</time></trkpt><trkpt lat="40.143240" lon="-5.908330"><ele>498.0</ele><time>2013-08-10T08:05:07Z</time></trkpt><trkpt lat="40.143270" lon="-5.908400"><ele>498.6</ele><time>2013-08-10T08:05:24Z</time></trkpt><trkpt lat="40.143300" lon="-5.908470"><ele>499.1</ele><time>2013-08-10T08:06:16Z</time></trkpt><trkpt lat="40.143260" lon="-5.908430"><ele>498.8</ele><time>2013-08-10T08:06:32Z</time></trkpt><trkpt lat="40.143211" lon="-5.908225"><ele>497.8</ele><time>2013-08-10T08:06:50Z</time></trkpt><trkpt lat="40.143120" lon="-5.908100"><ele>497.2</ele><time>2013-08-10T08:07:07Z</time></trkpt><trkpt lat="40.143020" lon="-5.907980"><ele>496.2</ele><time>2013-08-10T08:07:23Z</time></trkpt><trkpt lat="40.142961" lon="-5.907891"><ele>495.4</ele><time>2013-08-10T08:07:41Z</time></trkpt><trkpt lat="40.142802" lon="-5.907732"><ele>493.0</ele><time>2013-08-10T08:07:57Z</time></trkpt><trkpt lat="40.142770" lon="-5.907670"><ele>492.1</ele><time>2013-08-10T08:08:15Z</time></trkpt><trkpt lat="40.142710" lon="-5.907600"><ele>490.8</ele><time>2013-08-10T08:08:32Z</time></trkpt><trkpt lat="40.142670" lon="-5.907530"><ele>489.6</ele><time>2013-08-10T08:08:48Z</time></trkpt><trkpt lat="40.142620" lon="-5.907490"><ele>488.6</ele><time>2013-08-10T08:09:06Z</time></trkpt><trkpt lat="40.142600" lon="-5.907430"><ele>488.3</ele><time>2013-08-10T08:09:22Z</time></trkpt><trkpt lat="40.142590" lon="-5.907410"><ele>488.1</ele><time>2013-08-10T08:09:40Z</time></trkpt><trkpt lat="40.142530" lon="-5.907370"><ele>487.4</ele><time>2013-08-10T08:09:57Z</time></trkpt><trkpt lat="40.142440" lon="-5.907220"><ele>486.6</ele><time>2013-08-10T08:10:31Z</time></trkpt><trkpt lat="40.142376" lon="-5.907206"><ele>486.1</ele><time>2013-08-10T08:10:47Z</time></trkpt><trkpt lat="40.142321" lon="-5.907177"><ele>485.9</ele><time>2013-08-10T08:11:05Z</time></trkpt><trkpt lat="40.142250" lon="-5.907070"><ele>484.9</ele><time>2013-08-10T08:11:22Z</time></trkpt><trkpt lat="40.142210" lon="-5.907090"><ele>484.6</ele><time>2013-08-10T08:11:38Z</time></trkpt><trkpt lat="40.142180" lon="-5.907010"><ele>484.0</ele><time>2013-08-10T08:11:56Z</time></trkpt><trkpt lat="40.142100" lon="-5.906880"><ele>482.7</ele><time>2013-08-10T08:12:12Z</time></trkpt><trkpt lat="40.142080" lon="-5.906850"><ele>482.3</ele><time>2013-08-10T08:15:54Z</time></trkpt><trkpt lat="40.141950" lon="-5.906440"><ele>479.6</ele><time>2013-08-10T08:16:11Z</time></trkpt><trkpt lat="40.141930" lon="-5.906200"><ele>479.3</ele><time>2013-08-10T08:16:27Z</time></trkpt><trkpt lat="40.141920" lon="-5.905890"><ele>479.1</ele><time>2013-08-10T08:16:45Z</time></trkpt><trkpt lat="40.141920" lon="-5.905560"><ele>479.5</ele><time>2013-08-10T08:17:01Z</time></trkpt><trkpt lat="40.142000" lon="-5.905250"><ele>480.2</ele><time>2013-08-10T08:17:19Z</time></trkpt><trkpt lat="40.142120" lon="-5.904850"><ele>479.3</ele><time>2013-08-10T08:17:36Z</time></trkpt><trkpt lat="40.142190" lon="-5.904540"><ele>476.8</ele><time>2013-08-10T08:17:52Z</time></trkpt><trkpt lat="40.142260" lon="-5.904180"><ele>473.8</ele><time>2013-08-10T08:18:10Z</time></trkpt><trkpt lat="40.142360" lon="-5.904050"><ele>472.7</ele><time>2013-08-10T08:18:26Z</time></trkpt><trkpt lat="40.142450" lon="-5.903960"><ele>472.0</ele><time>2013-08-10T08:18:44Z</time></trkpt><trkpt lat="40.142620" lon="-5.903810"><ele>470.2</ele><time>2013-08-10T08:19:01Z</time></trkpt><trkpt lat="40.142870" lon="-5.903750"><ele>468.9</ele><time>2013-08-10T08:19:17Z</time></trkpt><trkpt lat="40.143150" lon="-5.903710"><ele>467.8</ele><time>2013-08-10T08:19:35Z</time></trkpt><trkpt lat="40.143400" lon="-5.903600"><ele>467.0</ele><time>2013-08-10T08:19:51Z</time></trkpt><trkpt lat="40.143610" lon="-5.903510"><ele>467.5</ele><time>2013-08-10T08:20:09Z</time></trkpt><trkpt lat="40.143780" lon="-5.903440"><ele>467.9</ele><time>2013-08-10T08:20:25Z</time></trkpt><trkpt lat="40.144000" lon="-5.903440"><ele>469.0</ele><time>2013-08-10T08:20:42Z</time></trkpt><trkpt lat="40.144090" lon="-5.903450"><ele>469.6</ele><time>2013-08-10T08:21:00Z</time></trkpt><trkpt lat="40.144330" lon="-5.903420"><ele>470.9</ele><time>2013-08-10T08:21:16Z</time></trkpt><trkpt lat="40.144550" lon="-5.903290"><ele>471.4</ele><time>2013-08-10T08:21:34Z</time></trkpt><trkpt lat="40.144830" lon="-5.902960"><ele>470.5</ele><time>2013-08-10T08:21:50Z</time></trkpt><trkpt lat="40.145000" lon="-5.902870"><ele>470.6</ele><time>2013-08-10T08:22:08Z</time></trkpt><trkpt lat="40.145220" lon="-5.902820"><ele>471.1</ele><time>2013-08-10T08:22:25Z</time></trkpt><trkpt lat="40.145520" lon="-5.902740"><ele>471.8</ele><time>2013-08-10T08:22:41Z</time></trkpt><trkpt lat="40.145800" lon="-5.902600"><ele>471.8</ele><time>2013-08-10T08:22:59Z</time></trkpt><trkpt lat="40.146420" lon="-5.902080"><ele>477.7</ele><time>2013-08-10T08:23:15Z</time></trkpt><trkpt lat="40.146610" lon="-5.901830"><ele>479.1</ele><time>2013-08-10T08:23:33Z</time></trkpt><trkpt lat="40.146650" lon="-5.901530"><ele>478.8</ele><time>2013-08-10T08:23:50Z</time></trkpt><trkpt lat="40.146600" lon="-5.901180"><ele>478.2</ele><time>2013-08-10T08:24:06Z</time></trkpt><trkpt lat="40.146570" lon="-5.900790"><ele>477.9</ele><time>2013-08-10T08:24:24Z</time></trkpt><trkpt lat="40.146570" lon="-5.900690"><ele>478.0</ele><time>2013-08-10T08:24:40Z</time></trkpt><trkpt lat="40.146560" lon="-5.900660"><ele>477.9</ele><time>2013-08-10T08:24:58Z</time></trkpt><trkpt lat="40.146670" lon="-5.900300"><ele>479.7</ele><time>2013-08-10T08:25:15Z</time></trkpt><trkpt lat="40.146810" lon="-5.899980"><ele>481.5</ele><time>2013-08-10T08:25:31Z</time></trkpt><trkpt lat="40.146830" lon="-5.899920"><ele>481.5</ele><time>2013-08-10T08:25:49Z</time></trkpt><trkpt lat="40.146810" lon="-5.899930"><ele>481.3</ele><time>2013-08-10T08:26:05Z</time></trkpt><trkpt lat="40.146810" lon="-5.899940"><ele>481.3</ele><time>2013-08-10T08:26:23Z</time></trkpt><trkpt lat="40.147170" lon="-5.899480"><ele>483.9</ele><time>2013-08-10T08:26:40Z</time></trkpt><trkpt lat="40.147350" lon="-5.899300"><ele>485.5</ele><time>2013-08-10T08:26:56Z</time></trkpt><trkpt lat="40.147880" lon="-5.898790"><ele>493.8</ele><time>2013-08-10T08:27:14Z</time></trkpt><trkpt lat="40.148260" lon="-5.898410"><ele>497.6</ele><time>2013-08-10T08:27:30Z</time></trkpt><trkpt lat="40.148440" lon="-5.898240"><ele>500.4</ele><time>2013-08-10T08:27:48Z</time></trkpt><trkpt lat="40.148820" lon="-5.897910"><ele>506.7</ele><time>2013-08-10T08:28:04Z</time></trkpt><trkpt lat="40.149000" lon="-5.897760"><ele>508.7</ele><time>2013-08-10T08:28:21Z</time></trkpt><trkpt lat="40.149130" lon="-5.897660"><ele>509.8</ele><time>2013-08-10T08:28:39Z</time></trkpt><trkpt lat="40.149220" lon="-5.897570"><ele>510.4</ele><time>2013-08-10T08:28:55Z</time></trkpt><trkpt lat="40.149290" lon="-5.897530"><ele>511.5</ele><time>2013-08-10T08:29:13Z</time></trkpt><trkpt lat="40.149450" lon="-5.897400"><ele>513.6</ele><time>2013-08-10T08:29:29Z</time></trkpt><trkpt lat="40.149590" lon="-5.897380"><ele>516.6</ele><time>2013-08-10T08:29:47Z</time></trkpt><trkpt lat="40.149690" lon="-5.897410"><ele>519.3</ele><time>2013-08-10T08:30:04Z</time></trkpt><trkpt lat="40.149810" lon="-5.897430"><ele>522.3</ele><time>2013-08-10T08:30:20Z</time></trkpt><trkpt lat="40.149820" lon="-5.897440"><ele>522.7</ele><time>2013-08-10T08:30:38Z</time></trkpt><trkpt lat="40.149980" lon="-5.897390"><ele>525.6</ele><time>2013-08-10T08:30:54Z</time></trkpt><trkpt lat="40.150070" lon="-5.897330"><ele>525.9</ele><time>2013-08-10T08:31:12Z</time></trkpt><trkpt lat="40.150210" lon="-5.897150"><ele>525.0</ele><time>2013-08-10T08:31:29Z</time></trkpt><trkpt lat="40.150450" lon="-5.896940"><ele>525.9</ele><time>2013-08-10T08:31:45Z</time></trkpt><trkpt lat="40.150640" lon="-5.896740"><ele>526.9</ele><time>2013-08-10T08:32:03Z</time></trkpt><trkpt lat="40.150632" lon="-5.896709"><ele>526.4</ele><time>2013-08-10T08:32:19Z</time></trkpt><trkpt lat="40.150642" lon="-5.896672"><ele>526.7</ele><time>2013-08-10T08:32:37Z</time></trkpt><trkpt lat="40.150570" lon="-5.896500"><ele>524.7</ele><time>2013-08-10T08:32:54Z</time></trkpt><trkpt lat="40.150360" lon="-5.896180"><ele>519.4</ele><time>2013-08-10T08:33:10Z</time></trkpt><trkpt lat="40.150370" lon="-5.896190"><ele>519.7</ele><time>2013-08-10T08:33:28Z</time></trkpt><trkpt lat="40.150360" lon="-5.896200"><ele>519.5</ele><time>2013-08-10T08:33:44Z</time></trkpt><trkpt lat="40.150480" lon="-5.895760"><ele>521.5</ele><time>2013-08-10T08:34:02Z</time></trkpt><trkpt lat="40.150560" lon="-5.895560"><ele>521.4</ele><time>2013-08-10T08:34:19Z</time></trkpt><trkpt lat="40.150560" lon="-5.895530"><ele>521.0</ele><time>2013-08-10T08:34:35Z</time></trkpt><trkpt lat="40.150610" lon="-5.895410"><ele>520.9</ele><time>2013-08-10T08:34:53Z</time></trkpt><trkpt lat="40.150640" lon="-5.895360"><ele>521.0</ele><time>2013-08-10T08:35:09Z</time></trkpt><trkpt lat="40.150740" lon="-5.895320"><ele>523.2</ele><time>2013-08-10T08:35:27Z</time></trkpt><trkpt lat="40.150700" lon="-5.895520"><ele>524.8</ele><time>2013-08-10T08:35:43Z</time></trkpt><trkpt lat="40.150690" lon="-5.895540"><ele>524.8</ele><time>2013-08-10T08:36:00Z</time></trkpt><trkpt lat="40.150680" lon="-5.895540"><ele>524.5</ele><time>2013-08-10T08:36:18Z</time></trkpt><trkpt lat="40.150670" lon="-5.895549"><ele>523.8</ele><time>2013-08-10T08:36:34Z</time></trkpt><trkpt lat="40.150650" lon="-5.895610"><ele>524.6</ele><time>2013-08-10T08:36:52Z</time></trkpt><trkpt lat="40.150610" lon="-5.896050"><ele>526.1</ele><time>2013-08-10T08:37:08Z</time></trkpt><trkpt lat="40.150610" lon="-5.896090"><ele>526.0</ele><time>2013-08-10T08:37:26Z</time></trkpt><trkpt lat="40.150620" lon="-5.896180"><ele>526.2</ele><time>2013-08-10T08:37:43Z</time></trkpt><trkpt lat="40.150630" lon="-5.896210"><ele>526.4</ele><time>2013-08-10T08:37:59Z</time></trkpt><trkpt lat="40.150730" lon="-5.896290"><ele>528.8</ele><time>2013-08-10T08:38:17Z</time></trkpt><trkpt lat="40.150900" lon="-5.896240"><ele>533.3</ele><time>2013-08-10T08:38:33Z</time></trkpt><trkpt lat="40.151080" lon="-5.896320"><ele>537.6</ele><time>2013-08-10T08:38:51Z</time></trkpt><trkpt lat="40.151100" lon="-5.896330"><ele>538.1</ele><time>2013-08-10T08:39:08Z</time></trkpt><trkpt lat="40.151220" lon="-5.896510"><ele>540.7</ele><time>2013-08-10T08:39:24Z</time></trkpt><trkpt lat="40.151260" lon="-5.896720"><ele>541.5</ele><time>2013-08-10T08:39:42Z</time></trkpt><trkpt lat="40.151340" lon="-5.896950"><ele>544.4</ele><time>2013-08-10T08:39:58Z</time></trkpt><trkpt lat="40.151470" lon="-5.897130"><ele>547.9</ele><time>2013-08-10T08:40:16Z</time></trkpt><trkpt lat="40.151510" lon="-5.897350"><ele>549.1</ele><time>2013-08-10T08:40:33Z</time></trkpt><trkpt lat="40.151490" lon="-5.897560"><ele>549.5</ele><time>2013-08-10T08:40:49Z</time></trkpt><trkpt lat="40.151520" lon="-5.897610"><ele>550.2</ele><time>2013-08-10T08:41:07Z</time></trkpt><trkpt lat="40.151520" lon="-5.897640"><ele>550.4</ele><time>2013-08-10T08:41:23Z</time></trkpt><trkpt lat="40.151555" lon="-5.897694"><ele>552.2</ele><time>2013-08-10T08:41:41Z</time></trkpt><trkpt lat="40.151554" lon="-5.897726"><ele>552.3</ele><time>2013-08-10T08:41:58Z</time></trkpt><trkpt lat="40.151570" lon="-5.897740"><ele>551.6</ele><time>2013-08-10T08:42:48Z</time></trkpt><trkpt lat="40.151593" lon="-5.897792"><ele>552.4</ele><time>2013-08-10T08:43:06Z</time></trkpt><trkpt lat="40.151610" lon="-5.897820"><ele>552.3</ele><time>2013-08-10T08:43:22Z</time></trkpt><trkpt lat="40.151680" lon="-5.897700"><ele>552.8</ele><time>2013-08-10T08:43:39Z</time></trkpt><trkpt lat="40.151680" lon="-5.897590"><ele>552.5</ele><time>2013-08-10T08:43:57Z</time></trkpt><trkpt lat="40.151710" lon="-5.897440"><ele>553.0</ele><time>2013-08-10T08:44:13Z</time></trkpt><trkpt lat="40.151820" lon="-5.897420"><ele>555.6</ele><time>2013-08-10T08:44:31Z</time></trkpt><trkpt lat="40.151980" lon="-5.897580"><ele>559.7</ele><time>2013-08-10T08:44:47Z</time></trkpt><trkpt lat="40.152110" lon="-5.897790"><ele>563.3</ele><time>2013-08-10T08:45:05Z</time></trkpt><trkpt lat="40.152220" lon="-5.897860"><ele>566.1</ele><time>2013-08-10T08:45:22Z</time></trkpt><trkpt lat="40.152340" lon="-5.897830"><ele>569.0</ele><time>2013-08-10T08:45:38Z</time></trkpt><trkpt lat="40.152350" lon="-5.897820"><ele>569.2</ele><time>2013-08-10T08:45:56Z</time></trkpt><trkpt lat="40.152400" lon="-5.897750"><ele>570.2</ele><time>2013-08-10T08:46:12Z</time></trkpt><trkpt lat="40.152560" lon="-5.897470"><ele>573.6</ele><time>2013-08-10T08:46:30Z</time></trkpt><trkpt lat="40.152650" lon="-5.897290"><ele>575.3</ele><time>2013-08-10T08:46:47Z</time></trkpt><trkpt lat="40.152760" lon="-5.897150"><ele>577.3</ele><time>2013-08-10T08:47:03Z</time></trkpt><trkpt lat="40.152880" lon="-5.897080"><ele>579.6</ele><time>2013-08-10T08:47:21Z</time></trkpt><trkpt lat="40.153030" lon="-5.896970"><ele>582.1</ele><time>2013-08-10T08:47:37Z</time></trkpt><trkpt lat="40.153160" lon="-5.896930"><ele>584.5</ele><time>2013-08-10T08:47:55Z</time></trkpt><trkpt lat="40.153230" lon="-5.896940"><ele>586.1</ele><time>2013-08-10T08:48:12Z</time></trkpt><trkpt lat="40.153340" lon="-5.897020"><ele>589.4</ele><time>2013-08-10T08:48:28Z</time></trkpt><trkpt lat="40.153410" lon="-5.897030"><ele>591.5</ele><time>2013-08-10T08:48:46Z</time></trkpt><trkpt lat="40.153490" lon="-5.897010"><ele>593.5</ele><time>2013-08-10T08:49:02Z</time></trkpt><trkpt lat="40.153610" lon="-5.897030"><ele>597.1</ele><time>2013-08-10T08:49:20Z</time></trkpt><trkpt lat="40.153780" lon="-5.896920"><ele>600.3</ele><time>2013-08-10T08:49:37Z</time></trkpt><trkpt lat="40.153830" lon="-5.896890"><ele>601.3</ele><time>2013-08-10T08:49:53Z</time></trkpt><trkpt lat="40.153980" lon="-5.896850"><ele>604.8</ele><time>2013-08-10T08:50:11Z</time></trkpt><trkpt lat="40.154022" lon="-5.896768"><ele>605.3</ele><time>2013-08-10T08:50:27Z</time></trkpt><trkpt lat="40.154020" lon="-5.896824"><ele>604.8</ele><time>2013-08-10T08:50:45Z</time></trkpt><trkpt lat="40.154002" lon="-5.896850"><ele>605.1</ele><time>2013-08-10T08:51:01Z</time></trkpt><trkpt lat="40.153977" lon="-5.896934"><ele>605.0</ele><time>2013-08-10T08:51:18Z</time></trkpt><trkpt lat="40.153930" lon="-5.897050"><ele>606.3</ele><time>2013-08-10T08:51:36Z</time></trkpt><trkpt lat="40.153920" lon="-5.897080"><ele>606.5</ele><time>2013-08-10T08:51:52Z</time></trkpt><trkpt lat="40.153921" lon="-5.897102"><ele>604.9</ele><time>2013-08-10T08:52:10Z</time></trkpt><trkpt lat="40.153920" lon="-5.897140"><ele>607.4</ele><time>2013-08-10T08:52:26Z</time></trkpt><trkpt lat="40.153630" lon="-5.897530"><ele>604.2</ele><time>2013-08-10T08:52:44Z</time></trkpt><trkpt lat="40.153590" lon="-5.897720"><ele>604.9</ele><time>2013-08-10T08:53:01Z</time></trkpt><trkpt lat="40.153610" lon="-5.897790"><ele>606.2</ele><time>2013-08-10T08:53:17Z</time></trkpt><trkpt lat="40.153670" lon="-5.897940"><ele>609.6</ele><time>2013-08-10T08:53:35Z</time></trkpt><trkpt lat="40.153740" lon="-5.898170"><ele>614.4</ele><time>2013-08-10T08:53:51Z</time></trkpt><trkpt lat="40.153510" lon="-5.898680"><ele>612.3</ele><time>2013-08-10T08:54:09Z</time></trkpt><trkpt lat="40.153500" lon="-5.898710"><ele>612.3</ele><time>2013-08-10T08:54:26Z</time></trkpt><trkpt lat="40.153460" lon="-5.898790"><ele>612.0</ele><time>2013-08-10T08:54:42Z</time></trkpt><trkpt lat="40.153260" lon="-5.899030"><ele>608.8</ele><time>2013-08-10T08:55:00Z</time></trkpt><trkpt lat="40.153220" lon="-5.899060"><ele>607.9</ele><time>2013-08-10T08:55:16Z</time></trkpt><trkpt lat="40.153134" lon="-5.899122"><ele>608.0</ele><time>2013-08-10T08:55:34Z</time></trkpt><trkpt lat="40.153060" lon="-5.899300"><ele>604.5</ele><time>2013-08-10T08:55:51Z</time></trkpt><trkpt lat="40.153010" lon="-5.899370"><ele>603.1</ele><time>2013-08-10T08:56:07Z</time></trkpt><trkpt lat="40.153020" lon="-5.899470"><ele>603.7</ele><time>2013-08-10T08:56:25Z</time></trkpt><trkpt lat="40.153100" lon="-5.899530"><ele>606.2</ele><time>2013-08-10T08:56:41Z</time></trkpt><trkpt lat="40.153130" lon="-5.899540"><ele>607.1</ele><time>2013-08-10T08:56:59Z</time></trkpt><trkpt lat="40.153180" lon="-5.899590"><ele>608.6</ele><time>2013-08-10T08:57:16Z</time></trkpt><trkpt lat="40.153230" lon="-5.899590"><ele>610.0</ele><time>2013-08-10T08:57:32Z</time></trkpt><trkpt lat="40.153390" lon="-5.899730"><ele>614.7</ele><time>2013-08-10T08:57:50Z</time></trkpt><trkpt lat="40.153410" lon="-5.899900"><ele>615.4</ele><time>2013-08-10T08:58:06Z</time></trkpt><trkpt lat="40.153390" lon="-5.900050"><ele>614.9</ele><time>2013-08-10T08:58:24Z</time></trkpt><trkpt lat="40.153320" lon="-5.900240"><ele>613.3</ele><time>2013-08-10T08:58:40Z</time></trkpt><trkpt lat="40.153260" lon="-5.900340"><ele>612.3</ele><time>2013-08-10T08:58:57Z</time></trkpt><trkpt lat="40.153240" lon="-5.900380"><ele>612.0</ele><time>2013-08-10T08:59:15Z</time></trkpt><trkpt lat="40.153230" lon="-5.900420"><ele>612.0</ele><time>2013-08-10T08:59:31Z</time></trkpt><trkpt lat="40.153170" lon="-5.900510"><ele>611.2</ele><time>2013-08-10T08:59:49Z</time></trkpt><trkpt lat="40.153100" lon="-5.900580"><ele>610.3</ele><time>2013-08-10T09:00:05Z</time></trkpt><trkpt lat="40.153100" lon="-5.900690"><ele>610.9</ele><time>2013-08-10T09:00:23Z</time></trkpt><trkpt lat="40.153090" lon="-5.900790"><ele>611.3</ele><time>2013-08-10T09:00:40Z</time></trkpt><trkpt lat="40.153090" lon="-5.900950"><ele>611.9</ele><time>2013-08-10T09:00:56Z</time></trkpt><trkpt lat="40.153100" lon="-5.900960"><ele>612.1</ele><time>2013-08-10T09:01:14Z</time></trkpt><trkpt lat="40.153110" lon="-5.901000"><ele>612.3</ele><time>2013-08-10T09:01:30Z</time></trkpt><trkpt lat="40.153130" lon="-5.901030"><ele>612.7</ele><time>2013-08-10T09:01:48Z</time></trkpt><trkpt lat="40.153150" lon="-5.901080"><ele>613.2</ele><time>2013-08-10T09:02:05Z</time></trkpt><trkpt lat="40.153190" lon="-5.901180"><ele>614.1</ele><time>2013-08-10T09:02:21Z</time></trkpt><trkpt lat="40.153245" lon="-5.901451"><ele>615.9</ele><time>2013-08-10T09:02:39Z</time></trkpt><trkpt lat="40.153225" lon="-5.901512"><ele>615.8</ele><time>2013-08-10T09:02:55Z</time></trkpt><trkpt lat="40.153179" lon="-5.901721"><ele>616.9</ele><time>2013-08-10T09:03:13Z</time></trkpt><trkpt lat="40.153164" lon="-5.901779"><ele>618.1</ele><time>2013-08-10T09:03:30Z</time></trkpt><trkpt lat="40.153144" lon="-5.901878"><ele>620.1</ele><time>2013-08-10T09:03:46Z</time></trkpt><trkpt lat="40.153134" lon="-5.901995"><ele>622.8</ele><time>2013-08-10T09:04:04Z</time></trkpt><trkpt lat="40.153088" lon="-5.902296"><ele>629.1</ele><time>2013-08-10T09:04:20Z</time></trkpt><trkpt lat="40.153025" lon="-5.902413"><ele>630.7</ele><time>2013-08-10T09:04:38Z</time></trkpt></trkseg></trk></gpx>